Impacts TAF Board
For situational awareness. Not to be used for flight planning purposes.
IDs:

KROW - Roswell/Ind Arpt, NM, US

Issued at 2114 UTC 01 Feb 2023
Updated at 2200 UTC 01 Feb 2023
Potential Impact None Slight Moderate High
Time2151Z 01/22Z 01/23Z 02/00Z 02/01Z 02/02Z 02/03Z 02/04Z 02/05Z 02/06Z 02/07Z 02/08Z 02/09Z 02/10Z>>
Type OBS PRVL PRVL PRVL PRVL PRVL PRVL PRVL PRVL PRVL PRVL PRVL PRVL PRVL
VIS 10 >6 >6 >6 >6 >6 >6 >6 >6 >6 >6 >6 >6 >6
CIG 65 60 60 60 15 15 15 15 15 15 15 15 15 60
Cover OVC BKN BKN BKN BKN BKN BKN BKN BKN BKN BKN BKN BKN BKN
FltCat VFR VFR VFR VFR MVFR MVFR MVFR MVFR MVFR MVFR MVFR MVFR MVFR VFR
WX -- VCSH VCSH VCSH VCSH VCSH VCSH VCSH VCSH VCSH VCSH VCSH VCSH --
WDir 200 180 180 180 190 190 190 190 190 190 190 190 190 340
WSpd 8 10 10 10 6 6 6 6 6 6 6 6 6 6
WGst -- -- -- -- -- -- -- -- -- -- -- -- -- --
WSHgt -- -- -- -- -- -- -- -- -- -- -- -- -- --
WSDir -- -- -- -- -- -- -- -- -- -- -- -- -- --
WSSpd -- -- -- -- -- -- -- -- -- -- -- -- -- --
R03/21
XWnd -3 -7 -7 -7 -3 -3 -3 -3 -3 -3 -3 -3 -3 5
HWnd -7 -7 -7 -7 -5 -5 -5 -5 -5 -5 -5 -5 -5 3
R17/35
XWnd -3 0 0 0 -1 -1 -1 -1 -1 -1 -1 -1 -1 -2
HWnd 8 10 10 10 6 6 6 6 6 6 6 6 6 -6

NOTE: LAMP data beyond the time of the TAF data is denoted as LAMP in Type and colored magenta.

Raw TAF
KROW 012114Z 0121/0218 18010KT P6SM VCSH SCT015 BKN060
  FM020100 19006KT P6SM VCSH BKN015 BKN050
  FM021000 34006KT P6SM SCT015 BKN060


Raw METAR
KROW 012151Z AUTO 20008KT 10SM FEW011 OVC065 00/M04 A3012 RMK AO2 SLP206 T00001039
KROW 012135Z 17008KT 10SM FEW009 BKN070 OVC095 00/M04 A3011 RMK AO2 T00001039
KROW 012051Z 17011KT 10SM SCT015 BKN080 OVC100 00/M04 A3014 RMK AO2 SLP212 T00001039 56023
KROW 011951Z 19009KT 10SM BKN015 OVC080 01/M04 A3015 RMK AO2 SLP216 T00061044
KROW 011929Z 19012KT 10SM BKN015 OVC080 01/M04 A3019 RMK AO2 T00061044
KROW 011851Z 17008KT 10SM OVC012 00/M04 A3019 RMK AO2 SLP230 T00001044

METAR Board
Radar Display
Forecast Discussion

For situational awareness. Not to be used for flight planning purposes.